Rhodanus — PGBC — position and weather

sailwx.info

Track history (hours):
 
Tides and Currents Weather Stations Pressure Air Temp Water Temp Dewpoint Dewpoint Depression Visibility Wind Speed Wind Dir Waves Ship Positions

Rhodanus

Last reported at 2014-Nov-01 00:14 UTC. Time now 2014-Nov-01 01:21 UTC.
Position N 51°31' E 000°06'.

Length 89 m; draft 3.9 m.

Type: Cargo ship. MMSI: 245848000.

Date/timePositionNaut miles runAvg speedWind from/ knotsBaromVisibWave heightAir tempDewpointWater temp
2014-Nov-01 00:14N 51°31' E 000°06'0 0.0
2014-Oct-31 23:26N 51°31' E 000°06'0 0.0
2014-Oct-31 20:11N 51°31' E 000°06'0 0.0
2014-Oct-31 19:29N 51°31' E 000°06'0 0.0
2014-Oct-31 18:23N 51°31' E 000°06'0 0.0
2014-Oct-31 16:05N 51°31' E 000°06'0 0.0
2014-Oct-31 10:26N 51°31' E 000°06'0 0.0
2014-Oct-31 08:29N 51°31' E 000°06'0 0.0
2014-Oct-31 05:33N 51°31' E 000°06'3 3.5
2014-Oct-31 04:33N 51°30' E 000°11'9 9.1
2014-Oct-31 03:33N 51°27' E 000°24'6 6.0
2014-Oct-31 02:33N 51°30' E 000°32'8 8.0
2014-Oct-31 01:33N 51°28' E 000°45'1 1.2
2014-Oct-31 00:29N 51°27' E 000°46'0 0.0
2014-Oct-30 23:32N 51°27' E 000°47'0 0.0
2014-Oct-30 22:32N 51°27' E 000°47'0 0.0
2014-Oct-30 21:32N 51°27' E 000°47'0 0.0
2014-Oct-30 20:17N 51°27' E 000°47'0 0.0
2014-Oct-30 19:17N 51°27' E 000°47'0 0.0
2014-Oct-30 18:32N 51°27' E 000°47'0 0.0
2014-Oct-30 17:32N 51°27' E 000°47'0 0.1
2014-Oct-30 16:32N 51°27' E 000°46'2 1.8
2014-Oct-30 15:33N 51°26' E 000°44'7 6.9
2014-Oct-30 14:30N 51°24' E 000°33'0 0.1
2014-Oct-30 13:33N 51°24' E 000°33'0 0.0
2014-Oct-30 12:23N 51°24' E 000°33'0 0.0
2014-Oct-30 11:32N 51°24' E 000°33'0 0.0
2014-Oct-30 10:20N 51°24' E 000°33'0 0.0
2014-Oct-30 09:29N 51°24' E 000°33'0 0.0
2014-Oct-30 08:29N 51°24' E 000°33'0 0.0
2014-Oct-30 07:32N 51°24' E 000°33'0 0.0
2014-Oct-30 06:30N 51°24' E 000°33'0 0.0
2014-Oct-30 05:32N 51°24' E 000°33'0 0.0
2014-Oct-30 04:29N 51°24' E 000°33'0 0.0
2014-Oct-30 03:32N 51°24' E 000°33'0 0.0
2014-Oct-30 02:32N 51°24' E 000°33'0 0.0
2014-Oct-30 01:33N 51°24' E 000°33'0 0.0
2014-Oct-30 00:32N 51°24' E 000°33'0 0.0
2014-Oct-29 23:32N 51°24' E 000°33'0 0.0
2014-Oct-29 22:33N 51°24' E 000°33'0 0.0
2014-Oct-29 21:32N 51°24' E 000°33'0 0.0
2014-Oct-29 20:29N 51°24' E 000°33'0 0.0
2014-Oct-29 19:32N 51°24' E 000°33'0 0.0
2014-Oct-29 18:33N 51°24' E 000°33'0 0.0
2014-Oct-29 17:23N 51°24' E 000°33'0 0.0
2014-Oct-29 16:30N 51°24' E 000°33'0 0.0
2014-Oct-29 15:29N 51°24' E 000°33'0 0.0
2014-Oct-29 14:29N 51°24' E 000°33'0 0.0
2014-Oct-29 13:32N 51°24' E 000°33'0 0.0
2014-Oct-29 12:29N 51°24' E 000°33'0 0.0
2014-Oct-29 11:11N 51°24' E 000°33'0 0.0
2014-Oct-29 10:11N 51°24' E 000°33'0 0.0
2014-Oct-29 09:23N 51°24' E 000°33'0 0.0
2014-Oct-29 08:29N 51°24' E 000°33'0 0.0
2014-Oct-29 07:29N 51°24' E 000°33'0 0.0
2014-Oct-29 06:23N 51°24' E 000°33'0 0.0
2014-Oct-29 05:23N 51°24' E 000°33'0 0.0
2014-Oct-29 04:30N 51°24' E 000°33'0 0.0
2014-Oct-29 03:30N 51°24' E 000°33'0 0.0
2014-Oct-29 02:23N 51°24' E 000°33'0 0.0
2014-Oct-29 01:23N 51°24' E 000°33'0 0.0
2014-Oct-28 23:29N 51°24' E 000°33'0 0.0
2014-Oct-28 22:24N 51°24' E 000°33'0 0.0
2014-Oct-28 21:12N 51°24' E 000°33'0 0.0
2014-Oct-28 20:23N 51°24' E 000°33'0 0.0
2014-Oct-28 19:18N 51°24' E 000°33'0 0.0
2014-Oct-28 13:32N 51°24' E 000°33'0 0.0
2014-Oct-28 08:23N 51°24' E 000°33'0 0.0
2014-Oct-27 16:11N 51°24' E 000°33'  
2014-Oct-25 01:09N 51°24' E 000°33'0 0.4
2014-Oct-25 00:27N 51°24' E 000°33'4 4.6
2014-Oct-24 23:33N 51°25' E 000°39'1010.5
2014-Oct-24 22:33N 51°30' E 000°55'3 2.4
2014-Oct-24 21:28N 51°31' E 000°59'0 0.0
2014-Oct-24 20:25N 51°31' E 000°59'0 0.2
2014-Oct-24 19:33N 51°31' E 000°58'5 5.3
2014-Oct-24 18:33N 51°30' E 001°07'9 8.5
2014-Oct-24 17:33N 51°29' E 001°20'7 6.9
2014-Oct-24 16:33N 51°26' E 001°30'9 9.2
2014-Oct-24 15:34N 51°19' E 001°40'9 9.3
2014-Oct-24 14:34N 51°10' E 001°43'1211.6
2014-Oct-24 13:33N 51°01' E 001°32'  
Track history (hours):
 
Tides and Currents Weather Stations Pressure Air Temp Water Temp Dewpoint Dewpoint Depression Visibility Wind Speed Wind Dir Waves Ship Positions

Rhodanus

Last reported at 2014-Nov-01 00:14 UTC. Time now 2014-Nov-01 01:21 UTC.
Position N 51°31' E 000°06'.

Length 89 m; draft 3.9 m.

Type: Cargo ship. MMSI: 245848000.

Date/timePositionNaut miles runAvg speedWind from/ knotsBaromVisibWave heightAir tempDewpointWater temp
2014-Nov-01 00:14N 51°31' E 000°06'0 0.0
2014-Oct-31 23:26N 51°31' E 000°06'0 0.0
2014-Oct-31 20:11N 51°31' E 000°06'0 0.0
2014-Oct-31 19:29N 51°31' E 000°06'0 0.0
2014-Oct-31 18:23N 51°31' E 000°06'0 0.0
2014-Oct-31 16:05N 51°31' E 000°06'0 0.0
2014-Oct-31 10:26N 51°31' E 000°06'0 0.0
2014-Oct-31 08:29N 51°31' E 000°06'0 0.0
2014-Oct-31 05:33N 51°31' E 000°06'3 3.5
2014-Oct-31 04:33N 51°30' E 000°11'9 9.1
2014-Oct-31 03:33N 51°27' E 000°24'6 6.0
2014-Oct-31 02:33N 51°30' E 000°32'8 8.0
2014-Oct-31 01:33N 51°28' E 000°45'1 1.2
2014-Oct-31 00:29N 51°27' E 000°46'0 0.0
2014-Oct-30 23:32N 51°27' E 000°47'0 0.0
2014-Oct-30 22:32N 51°27' E 000°47'0 0.0
2014-Oct-30 21:32N 51°27' E 000°47'0 0.0
2014-Oct-30 20:17N 51°27' E 000°47'0 0.0
2014-Oct-30 19:17N 51°27' E 000°47'0 0.0
2014-Oct-30 18:32N 51°27' E 000°47'0 0.0
2014-Oct-30 17:32N 51°27' E 000°47'0 0.1
2014-Oct-30 16:32N 51°27' E 000°46'2 1.8
2014-Oct-30 15:33N 51°26' E 000°44'7 6.9
2014-Oct-30 14:30N 51°24' E 000°33'0 0.1
2014-Oct-30 13:33N 51°24' E 000°33'0 0.0
2014-Oct-30 12:23N 51°24' E 000°33'0 0.0
2014-Oct-30 11:32N 51°24' E 000°33'0 0.0
2014-Oct-30 10:20N 51°24' E 000°33'0 0.0
2014-Oct-30 09:29N 51°24' E 000°33'0 0.0
2014-Oct-30 08:29N 51°24' E 000°33'0 0.0
2014-Oct-30 07:32N 51°24' E 000°33'0 0.0
2014-Oct-30 06:30N 51°24' E 000°33'0 0.0
2014-Oct-30 05:32N 51°24' E 000°33'0 0.0
2014-Oct-30 04:29N 51°24' E 000°33'0 0.0
2014-Oct-30 03:32N 51°24' E 000°33'0 0.0
2014-Oct-30 02:32N 51°24' E 000°33'0 0.0
2014-Oct-30 01:33N 51°24' E 000°33'0 0.0
2014-Oct-30 00:32N 51°24' E 000°33'0 0.0
2014-Oct-29 23:32N 51°24' E 000°33'0 0.0
2014-Oct-29 22:33N 51°24' E 000°33'0 0.0
2014-Oct-29 21:32N 51°24' E 000°33'0 0.0
2014-Oct-29 20:29N 51°24' E 000°33'0 0.0
2014-Oct-29 19:32N 51°24' E 000°33'0 0.0
2014-Oct-29 18:33N 51°24' E 000°33'0 0.0
2014-Oct-29 17:23N 51°24' E 000°33'0 0.0
2014-Oct-29 16:30N 51°24' E 000°33'0 0.0
2014-Oct-29 15:29N 51°24' E 000°33'0 0.0
2014-Oct-29 14:29N 51°24' E 000°33'0 0.0
2014-Oct-29 13:32N 51°24' E 000°33'0 0.0
2014-Oct-29 12:29N 51°24' E 000°33'0 0.0
2014-Oct-29 11:11N 51°24' E 000°33'0 0.0
2014-Oct-29 10:11N 51°24' E 000°33'0 0.0
2014-Oct-29 09:23N 51°24' E 000°33'0 0.0
2014-Oct-29 08:29N 51°24' E 000°33'0 0.0
2014-Oct-29 07:29N 51°24' E 000°33'0 0.0
2014-Oct-29 06:23N 51°24' E 000°33'0 0.0
2014-Oct-29 05:23N 51°24' E 000°33'0 0.0
2014-Oct-29 04:30N 51°24' E 000°33'0 0.0
2014-Oct-29 03:30N 51°24' E 000°33'0 0.0
2014-Oct-29 02:23N 51°24' E 000°33'0 0.0
2014-Oct-29 01:23N 51°24' E 000°33'0 0.0
2014-Oct-28 23:29N 51°24' E 000°33'0 0.0
2014-Oct-28 22:24N 51°24' E 000°33'0 0.0
2014-Oct-28 21:12N 51°24' E 000°33'0 0.0
2014-Oct-28 20:23N 51°24' E 000°33'0 0.0
2014-Oct-28 19:18N 51°24' E 000°33'0 0.0
2014-Oct-28 13:32N 51°24' E 000°33'0 0.0
2014-Oct-28 08:23N 51°24' E 000°33'0 0.0
2014-Oct-27 16:11N 51°24' E 000°33'  
2014-Oct-25 01:09N 51°24' E 000°33'0 0.4
2014-Oct-25 00:27N 51°24' E 000°33'4 4.6
2014-Oct-24 23:33N 51°25' E 000°39'1010.5
2014-Oct-24 22:33N 51°30' E 000°55'3 2.4
2014-Oct-24 21:28N 51°31' E 000°59'0 0.0
2014-Oct-24 20:25N 51°31' E 000°59'0 0.2
2014-Oct-24 19:33N 51°31' E 000°58'5 5.3
2014-Oct-24 18:33N 51°30' E 001°07'9 8.5
2014-Oct-24 17:33N 51°29' E 001°20'7 6.9
2014-Oct-24 16:33N 51°26' E 001°30'9 9.2
2014-Oct-24 15:34N 51°19' E 001°40'9 9.3
2014-Oct-24 14:34N 51°10' E 001°43'1211.6
2014-Oct-24 13:33N 51°01' E 001°32'  

Dump ship's entire track history